sensor_id;sensor_type;location;lat;lon;timestamp;temperature;humidity
5172;DHT22;2605;49.770;9.868;2023-10-31T00:00:20;11.60;99.90
5172;DHT22;2605;49.770;9.868;2023-10-31T00:02:46;11.50;99.90
5172;DHT22;2605;49.770;9.868;2023-10-31T00:05:11;11.50;99.90
5172;DHT22;2605;49.770;9.868;2023-10-31T00:07:37;11.60;99.90
5172;DHT22;2605;49.770;9.868;2023-10-31T00:10:03;11.40;99.90
5172;DHT22;2605;49.770;9.868;2023-10-31T00:12:28;11.40;99.90
5172;DHT22;2605;49.770;9.868;2023-10-31T00:14:54;11.40;99.90
5172;DHT22;2605;49.770;9.868;2023-10-31T00:17:19;11.40;99.90
5172;DHT22;2605;49.770;9.868;2023-10-31T00:19:45;11.50;99.90
5172;DHT22;2605;49.770;9.868;2023-10-31T00:22:10;11.40;99.90
5172;DHT22;2605;49.770;9.868;2023-10-31T00:24:35;11.30;99.90
5172;DHT22;2605;49.770;9.868;2023-10-31T00:27:01;11.30;99.90
5172;DHT22;2605;49.770;9.868;2023-10-31T00:29:26;11.30;99.90
5172;DHT22;2605;49.770;9.868;2023-10-31T00:31:52;11.30;99.90
5172;DHT22;2605;49.770;9.868;2023-10-31T00:34:18;11.30;99.90
5172;DHT22;2605;49.770;9.868;2023-10-31T00:36:43;11.30;99.90
5172;DHT22;2605;49.770;9.868;2023-10-31T00:39:09;11.30;99.90
5172;DHT22;2605;49.770;9.868;2023-10-31T00:41:34;11.30;99.90
5172;DHT22;2605;49.770;9.868;2023-10-31T00:44:00;11.30;99.90
5172;DHT22;2605;49.770;9.868;2023-10-31T00:46:25;11.30;99.90
5172;DHT22;2605;49.770;9.868;2023-10-31T00:48:50;11.20;99.90
5172;DHT22;2605;49.770;9.868;2023-10-31T00:51:16;11.20;99.90
5172;DHT22;2605;49.770;9.868;2023-10-31T00:53:42;11.20;99.90
5172;DHT22;2605;49.770;9.868;2023-10-31T00:56:08;11.20;99.90
5172;DHT22;2605;49.770;9.868;2023-10-31T00:58:33;11.20;99.90
5172;DHT22;2605;49.770;9.868;2023-10-31T01:00:59;11.10;99.90
5172;DHT22;2605;49.770;9.868;2023-10-31T01:03:25;11.20;99.90
5172;DHT22;2605;49.770;9.868;2023-10-31T01:05:50;11.10;99.90
5172;DHT22;2605;49.770;9.868;2023-10-31T01:08:16;11.00;99.90
5172;DHT22;2605;49.770;9.868;2023-10-31T01:10:41;11.00;99.90
5172;DHT22;2605;49.770;9.868;2023-10-31T01:13:07;10.90;99.90
5172;DHT22;2605;49.770;9.868;2023-10-31T01:15:32;10.90;99.90
5172;DHT22;2605;49.770;9.868;2023-10-31T01:17:58;11.00;99.90
5172;DHT22;2605;49.770;9.868;2023-10-31T01:20:23;10.80;99.90
5172;DHT22;2605;49.770;9.868;2023-10-31T01:22:49;10.80;99.90
5172;DHT22;2605;49.770;9.868;2023-10-31T01:25:15;10.80;99.90
5172;DHT22;2605;49.770;9.868;2023-10-31T01:27:40;10.70;99.90
5172;DHT22;2605;49.770;9.868;2023-10-31T01:30:08;10.60;99.90
5172;DHT22;2605;49.770;9.868;2023-10-31T01:32:33;10.70;99.90
5172;DHT22;2605;49.770;9.868;2023-10-31T01:34:59;10.70;99.90
5172;DHT22;2605;49.770;9.868;2023-10-31T01:37:24;10.50;99.90
5172;DHT22;2605;49.770;9.868;2023-10-31T01:39:50;10.50;99.90
5172;DHT22;2605;49.770;9.868;2023-10-31T01:42:16;10.40;99.90
5172;DHT22;2605;49.770;9.868;2023-10-31T01:44:42;10.40;99.90
5172;DHT22;2605;49.770;9.868;2023-10-31T01:47:07;10.40;99.90
5172;DHT22;2605;49.770;9.868;2023-10-31T01:49:33;10.40;99.90
5172;DHT22;2605;49.770;9.868;2023-10-31T01:52:02;10.50;99.90
5172;DHT22;2605;49.770;9.868;2023-10-31T01:54:28;10.40;99.90
5172;DHT22;2605;49.770;9.868;2023-10-31T01:56:55;10.40;99.90
5172;DHT22;2605;49.770;9.868;2023-10-31T01:59:24;10.30;99.90
5172;DHT22;2605;49.770;9.868;2023-10-31T02:01:50;10.20;99.90
5172;DHT22;2605;49.770;9.868;2023-10-31T02:04:15;10.20;99.90
5172;DHT22;2605;49.770;9.868;2023-10-31T02:06:41;10.10;99.90
5172;DHT22;2605;49.770;9.868;2023-10-31T02:09:06;10.10;99.90
5172;DHT22;2605;49.770;9.868;2023-10-31T02:11:32;10.10;99.90
5172;DHT22;2605;49.770;9.868;2023-10-31T02:13:57;10.00;99.90
5172;DHT22;2605;49.770;9.868;2023-10-31T02:16:23;10.00;99.90
5172;DHT22;2605;49.770;9.868;2023-10-31T02:18:50;9.90;99.90
5172;DHT22;2605;49.770;9.868;2023-10-31T02:21:17;9.80;99.90
5172;DHT22;2605;49.770;9.868;2023-10-31T02:23:58;9.80;99.90
5172;DHT22;2605;49.770;9.868;2023-10-31T02:26:28;9.70;99.90
5172;DHT22;2605;49.770;9.868;2023-10-31T02:28:54;9.70;99.90
5172;DHT22;2605;49.770;9.868;2023-10-31T02:31:19;9.60;99.90
5172;DHT22;2605;49.770;9.868;2023-10-31T02:33:45;9.60;99.90
5172;DHT22;2605;49.770;9.868;2023-10-31T02:36:10;9.60;99.90
5172;DHT22;2605;49.770;9.868;2023-10-31T02:38:39;9.50;99.90
5172;DHT22;2605;49.770;9.868;2023-10-31T02:41:05;9.50;99.90
5172;DHT22;2605;49.770;9.868;2023-10-31T02:43:30;9.50;99.90
5172;DHT22;2605;49.770;9.868;2023-10-31T02:45:56;9.40;99.90
5172;DHT22;2605;49.770;9.868;2023-10-31T02:48:22;9.40;99.90
5172;DHT22;2605;49.770;9.868;2023-10-31T02:50:48;9.30;99.90
5172;DHT22;2605;49.770;9.868;2023-10-31T02:53:14;9.30;99.90
5172;DHT22;2605;49.770;9.868;2023-10-31T02:55:40;9.30;99.90
5172;DHT22;2605;49.770;9.868;2023-10-31T02:58:05;9.30;99.90
5172;DHT22;2605;49.770;9.868;2023-10-31T03:00:31;9.30;99.90
5172;DHT22;2605;49.770;9.868;2023-10-31T03:02:56;9.30;99.90
5172;DHT22;2605;49.770;9.868;2023-10-31T03:05:22;9.30;99.90
5172;DHT22;2605;49.770;9.868;2023-10-31T03:07:47;9.30;99.90
5172;DHT22;2605;49.770;9.868;2023-10-31T03:10:13;9.30;99.90
5172;DHT22;2605;49.770;9.868;2023-10-31T03:12:38;9.30;99.90
5172;DHT22;2605;49.770;9.868;2023-10-31T03:15:04;9.20;99.90
5172;DHT22;2605;49.770;9.868;2023-10-31T03:17:30;9.20;99.90
5172;DHT22;2605;49.770;9.868;2023-10-31T03:19:55;9.20;99.90
5172;DHT22;2605;49.770;9.868;2023-10-31T03:22:24;9.20;99.90
5172;DHT22;2605;49.770;9.868;2023-10-31T03:24:49;9.20;99.90
5172;DHT22;2605;49.770;9.868;2023-10-31T03:27:17;9.20;99.90
5172;DHT22;2605;49.770;9.868;2023-10-31T03:29:43;9.20;99.90
5172;DHT22;2605;49.770;9.868;2023-10-31T03:32:08;9.20;99.90
5172;DHT22;2605;49.770;9.868;2023-10-31T03:34:35;9.10;99.90
5172;DHT22;2605;49.770;9.868;2023-10-31T03:37:00;9.20;99.90
5172;DHT22;2605;49.770;9.868;2023-10-31T03:39:26;9.10;99.90
5172;DHT22;2605;49.770;9.868;2023-10-31T03:41:57;9.10;99.90
5172;DHT22;2605;49.770;9.868;2023-10-31T03:44:23;9.10;99.90
5172;DHT22;2605;49.770;9.868;2023-10-31T03:46:48;9.10;99.90
5172;DHT22;2605;49.770;9.868;2023-10-31T03:49:14;9.10;99.90
5172;DHT22;2605;49.770;9.868;2023-10-31T03:51:39;9.10;99.90
5172;DHT22;2605;49.770;9.868;2023-10-31T03:54:05;9.10;99.90
5172;DHT22;2605;49.770;9.868;2023-10-31T03:56:30;9.20;99.90
5172;DHT22;2605;49.770;9.868;2023-10-31T03:58:56;9.10;99.90
5172;DHT22;2605;49.770;9.868;2023-10-31T04:01:21;9.10;99.90
5172;DHT22;2605;49.770;9.868;2023-10-31T04:03:47;9.10;99.90
5172;DHT22;2605;49.770;9.868;2023-10-31T04:06:12;9.10;99.90
5172;DHT22;2605;49.770;9.868;2023-10-31T04:08:38;9.10;99.90
5172;DHT22;2605;49.770;9.868;2023-10-31T04:11:03;9.10;99.90
5172;DHT22;2605;49.770;9.868;2023-10-31T04:13:29;9.10;99.90
5172;DHT22;2605;49.770;9.868;2023-10-31T04:15:54;9.10;99.90
5172;DHT22;2605;49.770;9.868;2023-10-31T04:18:20;9.10;99.90
5172;DHT22;2605;49.770;9.868;2023-10-31T04:20:45;9.10;99.90
5172;DHT22;2605;49.770;9.868;2023-10-31T04:23:11;9.20;99.90
5172;DHT22;2605;49.770;9.868;2023-10-31T04:25:37;9.20;99.90
5172;DHT22;2605;49.770;9.868;2023-10-31T04:28:03;9.20;99.90
5172;DHT22;2605;49.770;9.868;2023-10-31T04:30:28;9.20;99.90
5172;DHT22;2605;49.770;9.868;2023-10-31T04:32:54;9.20;99.90
5172;DHT22;2605;49.770;9.868;2023-10-31T04:35:19;9.30;99.90
5172;DHT22;2605;49.770;9.868;2023-10-31T04:37:45;9.30;99.90
5172;DHT22;2605;49.770;9.868;2023-10-31T04:40:11;9.30;99.90
5172;DHT22;2605;49.770;9.868;2023-10-31T04:42:38;9.30;99.90
5172;DHT22;2605;49.770;9.868;2023-10-31T04:45:05;9.30;99.90
5172;DHT22;2605;49.770;9.868;2023-10-31T04:47:31;9.30;99.90
5172;DHT22;2605;49.770;9.868;2023-10-31T04:49:57;9.50;99.90
5172;DHT22;2605;49.770;9.868;2023-10-31T04:52:22;9.40;99.90
5172;DHT22;2605;49.770;9.868;2023-10-31T04:54:48;9.40;99.90
5172;DHT22;2605;49.770;9.868;2023-10-31T04:57:13;9.40;99.90
5172;DHT22;2605;49.770;9.868;2023-10-31T04:59:39;9.40;99.90
5172;DHT22;2605;49.770;9.868;2023-10-31T05:02:04;9.50;99.90
5172;DHT22;2605;49.770;9.868;2023-10-31T05:04:30;9.40;99.90
5172;DHT22;2605;49.770;9.868;2023-10-31T05:06:55;9.50;99.90
5172;DHT22;2605;49.770;9.868;2023-10-31T05:09:21;9.40;99.90
5172;DHT22;2605;49.770;9.868;2023-10-31T05:11:48;9.40;99.90
5172;DHT22;2605;49.770;9.868;2023-10-31T05:14:14;9.40;99.90
5172;DHT22;2605;49.770;9.868;2023-10-31T05:16:43;9.30;99.90
5172;DHT22;2605;49.770;9.868;2023-10-31T05:19:09;9.30;99.90
5172;DHT22;2605;49.770;9.868;2023-10-31T05:21:35;9.30;99.90
5172;DHT22;2605;49.770;9.868;2023-10-31T05:24:01;9.30;99.90
5172;DHT22;2605;49.770;9.868;2023-10-31T05:26:26;9.30;99.90
5172;DHT22;2605;49.770;9.868;2023-10-31T05:28:53;9.30;99.90
5172;DHT22;2605;49.770;9.868;2023-10-31T05:31:19;9.30;99.90
5172;DHT22;2605;49.770;9.868;2023-10-31T05:33:45;9.30;99.90
5172;DHT22;2605;49.770;9.868;2023-10-31T05:36:20;9.30;99.90
5172;DHT22;2605;49.770;9.868;2023-10-31T05:38:46;9.40;99.90
5172;DHT22;2605;49.770;9.868;2023-10-31T05:41:12;9.40;99.90
5172;DHT22;2605;49.770;9.868;2023-10-31T05:43:38;9.40;99.90
5172;DHT22;2605;49.770;9.868;2023-10-31T05:46:03;9.40;99.90
5172;DHT22;2605;49.770;9.868;2023-10-31T05:48:31;9.50;99.90
5172;DHT22;2605;49.770;9.868;2023-10-31T05:50:56;9.50;99.90
5172;DHT22;2605;49.770;9.868;2023-10-31T05:53:21;9.50;99.90
5172;DHT22;2605;49.770;9.868;2023-10-31T05:55:47;9.50;99.90
5172;DHT22;2605;49.770;9.868;2023-10-31T05:58:12;9.50;99.90
5172;DHT22;2605;49.770;9.868;2023-10-31T06:00:38;9.50;99.90
5172;DHT22;2605;49.770;9.868;2023-10-31T06:03:03;9.60;99.90
5172;DHT22;2605;49.770;9.868;2023-10-31T06:05:29;9.50;99.90
5172;DHT22;2605;49.770;9.868;2023-10-31T06:07:55;9.50;99.90
5172;DHT22;2605;49.770;9.868;2023-10-31T06:10:21;9.50;99.90
5172;DHT22;2605;49.770;9.868;2023-10-31T06:12:47;9.50;99.90
5172;DHT22;2605;49.770;9.868;2023-10-31T06:15:12;9.60;99.90
5172;DHT22;2605;49.770;9.868;2023-10-31T06:17:38;9.60;99.90
5172;DHT22;2605;49.770;9.868;2023-10-31T06:20:03;9.60;99.90
5172;DHT22;2605;49.770;9.868;2023-10-31T06:22:29;9.60;99.90
5172;DHT22;2605;49.770;9.868;2023-10-31T06:24:55;9.50;99.90
5172;DHT22;2605;49.770;9.868;2023-10-31T06:27:20;9.60;99.90
5172;DHT22;2605;49.770;9.868;2023-10-31T06:29:48;9.60;99.90
5172;DHT22;2605;49.770;9.868;2023-10-31T06:32:14;9.60;99.90
5172;DHT22;2605;49.770;9.868;2023-10-31T06:34:39;9.60;99.90
5172;DHT22;2605;49.770;9.868;2023-10-31T06:37:05;9.60;99.90
5172;DHT22;2605;49.770;9.868;2023-10-31T06:39:30;9.60;99.90
5172;DHT22;2605;49.770;9.868;2023-10-31T06:41:56;9.60;99.90
5172;DHT22;2605;49.770;9.868;2023-10-31T06:44:22;9.60;99.90
5172;DHT22;2605;49.770;9.868;2023-10-31T06:46:47;9.80;99.90
5172;DHT22;2605;49.770;9.868;2023-10-31T06:49:13;9.70;99.90
5172;DHT22;2605;49.770;9.868;2023-10-31T06:51:38;9.60;99.90
5172;DHT22;2605;49.770;9.868;2023-10-31T06:54:06;9.70;99.90
5172;DHT22;2605;49.770;9.868;2023-10-31T06:56:32;9.70;99.90
5172;DHT22;2605;49.770;9.868;2023-10-31T06:58:58;9.80;99.90
5172;DHT22;2605;49.770;9.868;2023-10-31T07:01:24;9.80;99.90
5172;DHT22;2605;49.770;9.868;2023-10-31T07:03:49;9.80;99.90
5172;DHT22;2605;49.770;9.868;2023-10-31T07:06:15;9.80;99.90
5172;DHT22;2605;49.770;9.868;2023-10-31T07:08:40;9.80;99.90
5172;DHT22;2605;49.770;9.868;2023-10-31T07:11:06;9.90;99.90
5172;DHT22;2605;49.770;9.868;2023-10-31T07:13:31;10.00;99.90
5172;DHT22;2605;49.770;9.868;2023-10-31T07:15:57;9.90;99.90
5172;DHT22;2605;49.770;9.868;2023-10-31T07:18:22;9.90;99.90
5172;DHT22;2605;49.770;9.868;2023-10-31T07:20:48;9.90;99.90
5172;DHT22;2605;49.770;9.868;2023-10-31T07:23:13;9.90;99.90
5172;DHT22;2605;49.770;9.868;2023-10-31T07:25:40;9.90;99.90
5172;DHT22;2605;49.770;9.868;2023-10-31T07:28:05;9.90;99.90
5172;DHT22;2605;49.770;9.868;2023-10-31T07:30:31;9.90;99.90
5172;DHT22;2605;49.770;9.868;2023-10-31T07:32:56;10.00;99.90
5172;DHT22;2605;49.770;9.868;2023-10-31T07:35:22;9.90;99.90
5172;DHT22;2605;49.770;9.868;2023-10-31T07:37:47;9.80;99.90
5172;DHT22;2605;49.770;9.868;2023-10-31T07:40:14;9.90;99.90
5172;DHT22;2605;49.770;9.868;2023-10-31T07:42:39;9.90;99.90
5172;DHT22;2605;49.770;9.868;2023-10-31T07:45:05;9.90;99.90
5172;DHT22;2605;49.770;9.868;2023-10-31T07:47:31;9.80;99.90
5172;DHT22;2605;49.770;9.868;2023-10-31T07:49:56;9.90;99.90
5172;DHT22;2605;49.770;9.868;2023-10-31T07:52:22;9.90;99.90
5172;DHT22;2605;49.770;9.868;2023-10-31T07:54:48;9.90;99.90
5172;DHT22;2605;49.770;9.868;2023-10-31T07:57:13;9.90;99.90
5172;DHT22;2605;49.770;9.868;2023-10-31T07:59:39;10.00;99.90
5172;DHT22;2605;49.770;9.868;2023-10-31T08:02:04;10.00;99.90
5172;DHT22;2605;49.770;9.868;2023-10-31T08:04:30;10.00;99.90
5172;DHT22;2605;49.770;9.868;2023-10-31T08:06:56;10.00;99.90
5172;DHT22;2605;49.770;9.868;2023-10-31T08:09:21;10.00;99.90
5172;DHT22;2605;49.770;9.868;2023-10-31T08:11:47;10.00;99.90
5172;DHT22;2605;49.770;9.868;2023-10-31T08:14:13;10.10;99.90
5172;DHT22;2605;49.770;9.868;2023-10-31T08:16:38;10.10;99.90
5172;DHT22;2605;49.770;9.868;2023-10-31T08:19:04;10.10;99.90
5172;DHT22;2605;49.770;9.868;2023-10-31T08:21:29;10.20;99.90
5172;DHT22;2605;49.770;9.868;2023-10-31T08:24:03;10.20;99.90
5172;DHT22;2605;49.770;9.868;2023-10-31T08:26:30;10.20;99.90
5172;DHT22;2605;49.770;9.868;2023-10-31T08:28:55;10.20;99.90
5172;DHT22;2605;49.770;9.868;2023-10-31T08:31:21;10.20;99.90
5172;DHT22;2605;49.770;9.868;2023-10-31T08:33:46;10.30;99.90
5172;DHT22;2605;49.770;9.868;2023-10-31T08:36:15;10.30;99.90
5172;DHT22;2605;49.770;9.868;2023-10-31T08:38:40;10.30;99.90
5172;DHT22;2605;49.770;9.868;2023-10-31T08:41:06;10.40;99.90
5172;DHT22;2605;49.770;9.868;2023-10-31T08:43:32;10.30;99.90
5172;DHT22;2605;49.770;9.868;2023-10-31T08:45:57;10.40;99.90
5172;DHT22;2605;49.770;9.868;2023-10-31T08:48:23;10.40;99.90
5172;DHT22;2605;49.770;9.868;2023-10-31T08:50:48;10.50;99.90
5172;DHT22;2605;49.770;9.868;2023-10-31T08:53:14;10.60;99.90
5172;DHT22;2605;49.770;9.868;2023-10-31T08:55:40;10.70;99.90
5172;DHT22;2605;49.770;9.868;2023-10-31T08:58:10;10.70;99.90
5172;DHT22;2605;49.770;9.868;2023-10-31T09:00:36;10.70;99.90
5172;DHT22;2605;49.770;9.868;2023-10-31T09:03:01;10.80;99.90
5172;DHT22;2605;49.770;9.868;2023-10-31T09:05:27;10.80;99.90
5172;DHT22;2605;49.770;9.868;2023-10-31T09:07:52;10.90;99.90
5172;DHT22;2605;49.770;9.868;2023-10-31T09:10:18;11.00;99.90
5172;DHT22;2605;49.770;9.868;2023-10-31T09:12:43;11.00;99.90
5172;DHT22;2605;49.770;9.868;2023-10-31T09:15:09;11.10;99.90
5172;DHT22;2605;49.770;9.868;2023-10-31T09:17:35;11.30;99.90
5172;DHT22;2605;49.770;9.868;2023-10-31T09:20:00;11.30;99.90
5172;DHT22;2605;49.770;9.868;2023-10-31T09:22:25;11.30;99.90
5172;DHT22;2605;49.770;9.868;2023-10-31T09:24:51;11.30;99.90
5172;DHT22;2605;49.770;9.868;2023-10-31T09:27:16;11.40;99.90
5172;DHT22;2605;49.770;9.868;2023-10-31T09:29:42;11.50;99.90
5172;DHT22;2605;49.770;9.868;2023-10-31T09:32:07;11.40;99.90
5172;DHT22;2605;49.770;9.868;2023-10-31T09:34:33;11.30;99.90
5172;DHT22;2605;49.770;9.868;2023-10-31T09:37:02;11.20;99.90
5172;DHT22;2605;49.770;9.868;2023-10-31T09:39:28;11.30;99.90
5172;DHT22;2605;49.770;9.868;2023-10-31T09:41:53;11.30;99.90
5172;DHT22;2605;49.770;9.868;2023-10-31T09:44:19;11.30;99.90
5172;DHT22;2605;49.770;9.868;2023-10-31T09:46:45;11.30;99.90
5172;DHT22;2605;49.770;9.868;2023-10-31T09:49:11;11.40;99.90
5172;DHT22;2605;49.770;9.868;2023-10-31T09:51:37;11.50;99.90
5172;DHT22;2605;49.770;9.868;2023-10-31T09:54:04;11.60;99.90
5172;DHT22;2605;49.770;9.868;2023-10-31T09:56:31;11.70;99.90
5172;DHT22;2605;49.770;9.868;2023-10-31T09:59:00;11.80;99.90
5172;DHT22;2605;49.770;9.868;2023-10-31T10:01:26;11.70;99.90
5172;DHT22;2605;49.770;9.868;2023-10-31T10:03:52;11.80;99.90
5172;DHT22;2605;49.770;9.868;2023-10-31T10:06:18;11.60;99.90
5172;DHT22;2605;49.770;9.868;2023-10-31T10:08:46;11.50;99.90
5172;DHT22;2605;49.770;9.868;2023-10-31T10:11:12;11.60;99.90
5172;DHT22;2605;49.770;9.868;2023-10-31T10:13:37;11.60;99.90
5172;DHT22;2605;49.770;9.868;2023-10-31T10:16:03;11.50;99.90
5172;DHT22;2605;49.770;9.868;2023-10-31T10:18:33;11.30;99.90
5172;DHT22;2605;49.770;9.868;2023-10-31T10:21:01;11.30;99.90
5172;DHT22;2605;49.770;9.868;2023-10-31T10:23:28;11.30;99.90
5172;DHT22;2605;49.770;9.868;2023-10-31T10:25:54;11.40;99.90
5172;DHT22;2605;49.770;9.868;2023-10-31T10:28:20;11.30;99.90
5172;DHT22;2605;49.770;9.868;2023-10-31T10:30:47;11.30;99.90
5172;DHT22;2605;49.770;9.868;2023-10-31T10:33:14;11.30;99.90
5172;DHT22;2605;49.770;9.868;2023-10-31T10:35:39;11.30;99.90
5172;DHT22;2605;49.770;9.868;2023-10-31T10:38:14;11.10;99.90
5172;DHT22;2605;49.770;9.868;2023-10-31T10:40:42;11.30;99.90
5172;DHT22;2605;49.770;9.868;2023-10-31T10:43:16;11.40;99.90
5172;DHT22;2605;49.770;9.868;2023-10-31T10:45:43;11.50;99.90
5172;DHT22;2605;49.770;9.868;2023-10-31T10:48:12;11.30;99.90
5172;DHT22;2605;49.770;9.868;2023-10-31T10:50:42;11.30;99.90
5172;DHT22;2605;49.770;9.868;2023-10-31T10:53:19;11.20;99.90
5172;DHT22;2605;49.770;9.868;2023-10-31T10:55:51;11.30;99.90
5172;DHT22;2605;49.770;9.868;2023-10-31T10:58:22;11.20;99.90
5172;DHT22;2605;49.770;9.868;2023-10-31T11:00:49;11.00;99.90
5172;DHT22;2605;49.770;9.868;2023-10-31T11:03:17;10.90;99.90
5172;DHT22;2605;49.770;9.868;2023-10-31T11:05:43;10.90;99.90
5172;DHT22;2605;49.770;9.868;2023-10-31T11:08:09;11.00;99.90
5172;DHT22;2605;49.770;9.868;2023-10-31T11:10:35;11.20;99.90
5172;DHT22;2605;49.770;9.868;2023-10-31T11:13:01;11.40;99.90
5172;DHT22;2605;49.770;9.868;2023-10-31T11:15:27;11.60;99.90
5172;DHT22;2605;49.770;9.868;2023-10-31T11:17:55;11.50;99.90
5172;DHT22;2605;49.770;9.868;2023-10-31T11:20:21;11.50;99.90
5172;DHT22;2605;49.770;9.868;2023-10-31T11:22:47;11.60;99.90
5172;DHT22;2605;49.770;9.868;2023-10-31T11:25:21;11.60;99.90
5172;DHT22;2605;49.770;9.868;2023-10-31T11:27:50;11.60;99.90
5172;DHT22;2605;49.770;9.868;2023-10-31T11:32:58;11.70;99.90
5172;DHT22;2605;49.770;9.868;2023-10-31T11:35:29;11.80;99.90
5172;DHT22;2605;49.770;9.868;2023-10-31T11:38:09;11.80;99.90
5172;DHT22;2605;49.770;9.868;2023-10-31T11:40:38;12.00;99.90
5172;DHT22;2605;49.770;9.868;2023-10-31T11:43:22;12.20;99.90
5172;DHT22;2605;49.770;9.868;2023-10-31T11:45:48;12.20;99.90
5172;DHT22;2605;49.770;9.868;2023-10-31T11:48:14;12.00;99.90
5172;DHT22;2605;49.770;9.868;2023-10-31T11:50:40;12.10;99.90
5172;DHT22;2605;49.770;9.868;2023-10-31T11:53:11;12.20;99.90
5172;DHT22;2605;49.770;9.868;2023-10-31T11:55:48;12.30;99.90
5172;DHT22;2605;49.770;9.868;2023-10-31T12:00:44;11.90;99.90
5172;DHT22;2605;49.770;9.868;2023-10-31T12:03:10;11.90;99.90
5172;DHT22;2605;49.770;9.868;2023-10-31T12:05:36;12.00;99.90
5172;DHT22;2605;49.770;9.868;2023-10-31T12:08:01;12.10;99.90
5172;DHT22;2605;49.770;9.868;2023-10-31T12:10:28;12.10;99.90
5172;DHT22;2605;49.770;9.868;2023-10-31T12:12:57;12.00;99.90
5172;DHT22;2605;49.770;9.868;2023-10-31T12:15:24;11.90;99.90
5172;DHT22;2605;49.770;9.868;2023-10-31T12:17:49;12.00;99.90
5172;DHT22;2605;49.770;9.868;2023-10-31T12:20:16;11.80;99.90
5172;DHT22;2605;49.770;9.868;2023-10-31T12:22:42;11.90;99.90
5172;DHT22;2605;49.770;9.868;2023-10-31T12:25:09;12.00;99.90
5172;DHT22;2605;49.770;9.868;2023-10-31T12:27:44;12.20;99.90
5172;DHT22;2605;49.770;9.868;2023-10-31T12:30:11;12.00;99.90
5172;DHT22;2605;49.770;9.868;2023-10-31T12:32:39;12.00;99.90
5172;DHT22;2605;49.770;9.868;2023-10-31T12:35:04;12.20;99.90
5172;DHT22;2605;49.770;9.868;2023-10-31T12:37:31;12.40;99.90
5172;DHT22;2605;49.770;9.868;2023-10-31T12:39:57;12.20;99.90
5172;DHT22;2605;49.770;9.868;2023-10-31T12:42:23;12.10;99.90
5172;DHT22;2605;49.770;9.868;2023-10-31T12:44:55;12.10;99.90
5172;DHT22;2605;49.770;9.868;2023-10-31T12:47:24;12.20;99.90
5172;DHT22;2605;49.770;9.868;2023-10-31T12:50:08;12.30;99.90
5172;DHT22;2605;49.770;9.868;2023-10-31T12:52:54;12.10;99.90
5172;DHT22;2605;49.770;9.868;2023-10-31T12:55:22;12.20;99.90
5172;DHT22;2605;49.770;9.868;2023-10-31T12:57:48;12.30;99.90
5172;DHT22;2605;49.770;9.868;2023-10-31T13:00:16;12.30;99.90
5172;DHT22;2605;49.770;9.868;2023-10-31T13:02:44;12.60;99.90
5172;DHT22;2605;49.770;9.868;2023-10-31T13:05:16;12.70;99.90
5172;DHT22;2605;49.770;9.868;2023-10-31T13:07:49;12.70;99.90
5172;DHT22;2605;49.770;9.868;2023-10-31T13:10:16;12.60;99.90
5172;DHT22;2605;49.770;9.868;2023-10-31T13:12:48;12.60;99.90
5172;DHT22;2605;49.770;9.868;2023-10-31T13:15:14;12.50;99.90
5172;DHT22;2605;49.770;9.868;2023-10-31T13:17:40;12.50;99.90
5172;DHT22;2605;49.770;9.868;2023-10-31T13:20:14;12.50;99.90
5172;DHT22;2605;49.770;9.868;2023-10-31T13:22:41;12.60;99.90
5172;DHT22;2605;49.770;9.868;2023-10-31T13:25:09;12.40;99.90
5172;DHT22;2605;49.770;9.868;2023-10-31T13:27:39;12.40;99.90
5172;DHT22;2605;49.770;9.868;2023-10-31T13:30:07;12.30;99.90
5172;DHT22;2605;49.770;9.868;2023-10-31T13:32:33;12.30;99.90
5172;DHT22;2605;49.770;9.868;2023-10-31T13:35:02;12.20;99.90
5172;DHT22;2605;49.770;9.868;2023-10-31T13:37:28;12.30;99.90
5172;DHT22;2605;49.770;9.868;2023-10-31T13:39:53;12.30;99.90
5172;DHT22;2605;49.770;9.868;2023-10-31T13:42:19;12.30;99.90
5172;DHT22;2605;49.770;9.868;2023-10-31T13:44:45;12.30;99.90
5172;DHT22;2605;49.770;9.868;2023-10-31T13:47:11;12.30;99.90
5172;DHT22;2605;49.770;9.868;2023-10-31T13:49:39;12.20;99.90
5172;DHT22;2605;49.770;9.868;2023-10-31T13:52:05;12.10;99.90
5172;DHT22;2605;49.770;9.868;2023-10-31T13:54:34;12.20;99.90
5172;DHT22;2605;49.770;9.868;2023-10-31T13:56:59;12.20;99.90
5172;DHT22;2605;49.770;9.868;2023-10-31T13:59:25;12.10;99.90
5172;DHT22;2605;49.770;9.868;2023-10-31T14:01:51;12.10;99.90
5172;DHT22;2605;49.770;9.868;2023-10-31T14:04:17;12.10;99.90
5172;DHT22;2605;49.770;9.868;2023-10-31T14:06:43;12.10;99.90
5172;DHT22;2605;49.770;9.868;2023-10-31T14:09:10;12.10;99.90
5172;DHT22;2605;49.770;9.868;2023-10-31T14:11:37;12.10;99.90
5172;DHT22;2605;49.770;9.868;2023-10-31T14:14:06;12.10;99.90
5172;DHT22;2605;49.770;9.868;2023-10-31T14:16:36;12.10;99.90
5172;DHT22;2605;49.770;9.868;2023-10-31T14:19:02;12.10;99.90
5172;DHT22;2605;49.770;9.868;2023-10-31T14:21:28;12.30;99.90
5172;DHT22;2605;49.770;9.868;2023-10-31T14:23:54;12.30;99.90
5172;DHT22;2605;49.770;9.868;2023-10-31T14:26:23;12.30;99.90
5172;DHT22;2605;49.770;9.868;2023-10-31T14:28:49;12.30;99.90
5172;DHT22;2605;49.770;9.868;2023-10-31T14:31:15;12.50;99.90
5172;DHT22;2605;49.770;9.868;2023-10-31T14:33:41;12.60;99.90
5172;DHT22;2605;49.770;9.868;2023-10-31T14:36:08;12.80;99.90
5172;DHT22;2605;49.770;9.868;2023-10-31T14:38:36;12.80;99.90
5172;DHT22;2605;49.770;9.868;2023-10-31T14:41:01;12.80;99.90
5172;DHT22;2605;49.770;9.868;2023-10-31T14:43:27;12.80;99.90
5172;DHT22;2605;49.770;9.868;2023-10-31T14:45:52;12.60;99.90
5172;DHT22;2605;49.770;9.868;2023-10-31T14:48:20;12.70;99.90
5172;DHT22;2605;49.770;9.868;2023-10-31T14:50:49;12.60;99.90
5172;DHT22;2605;49.770;9.868;2023-10-31T14:53:15;12.50;99.90
5172;DHT22;2605;49.770;9.868;2023-10-31T14:55:41;12.60;99.90
5172;DHT22;2605;49.770;9.868;2023-10-31T14:58:06;13.30;99.90
5172;DHT22;2605;49.770;9.868;2023-10-31T15:00:35;15.00;99.90
5172;DHT22;2605;49.770;9.868;2023-10-31T15:03:01;15.80;99.90
5172;DHT22;2605;49.770;9.868;2023-10-31T15:05:26;17.00;99.90
5172;DHT22;2605;49.770;9.868;2023-10-31T15:07:52;17.50;99.90
5172;DHT22;2605;49.770;9.868;2023-10-31T15:10:19;17.60;99.90
5172;DHT22;2605;49.770;9.868;2023-10-31T15:12:46;16.40;99.90
5172;DHT22;2605;49.770;9.868;2023-10-31T15:15:12;15.30;99.90
5172;DHT22;2605;49.770;9.868;2023-10-31T15:17:38;14.40;99.90
5172;DHT22;2605;49.770;9.868;2023-10-31T15:20:04;13.60;99.90
5172;DHT22;2605;49.770;9.868;2023-10-31T15:22:30;13.20;99.90
5172;DHT22;2605;49.770;9.868;2023-10-31T15:24:55;13.00;99.90
5172;DHT22;2605;49.770;9.868;2023-10-31T15:27:21;12.80;99.90
5172;DHT22;2605;49.770;9.868;2023-10-31T15:29:46;12.60;99.90
5172;DHT22;2605;49.770;9.868;2023-10-31T15:32:12;12.40;99.90
5172;DHT22;2605;49.770;9.868;2023-10-31T15:34:39;12.30;99.90
5172;DHT22;2605;49.770;9.868;2023-10-31T15:37:06;12.00;99.90
5172;DHT22;2605;49.770;9.868;2023-10-31T15:39:31;11.80;99.90
5172;DHT22;2605;49.770;9.868;2023-10-31T15:41:57;11.70;99.90
5172;DHT22;2605;49.770;9.868;2023-10-31T15:44:23;11.50;99.90
5172;DHT22;2605;49.770;9.868;2023-10-31T15:46:48;11.40;99.90
5172;DHT22;2605;49.770;9.868;2023-10-31T15:49:14;11.30;99.90
5172;DHT22;2605;49.770;9.868;2023-10-31T15:51:40;11.20;99.90
5172;DHT22;2605;49.770;9.868;2023-10-31T15:54:06;11.10;99.90
5172;DHT22;2605;49.770;9.868;2023-10-31T15:56:31;11.00;99.90
5172;DHT22;2605;49.770;9.868;2023-10-31T15:58:56;11.00;99.90
5172;DHT22;2605;49.770;9.868;2023-10-31T16:01:22;10.80;99.90
5172;DHT22;2605;49.770;9.868;2023-10-31T16:03:47;10.70;99.90
5172;DHT22;2605;49.770;9.868;2023-10-31T16:06:13;10.60;99.90